Terminal Aerodrome Forecast
Issued by NWS Spokane, WA

Home | Current Version | Previous Version | Text Only | Print | Product List | Glossary On
Versions: 1 2 3 4 5 6 7 8 9 10 11 12 13 14 15 16 17 18 19 20
000
FTUS46 KOTX 212320
TAFLWS
TAF
KLWS 212320Z 2200/2224 09005KT P6SM -RA SCT070 OVC090
     FM220300 13005KT P6SM -RA SCT040 OVC050
     FM221800 10004KT P6SM -RA SCT025 OVC040
     FM222200 12009KT P6SM OVC050=

USA.gov is the U.S. government's official web portal to all federal, state and local government web resources and services.